Terminal Aerodrome Forecast
Issued by NWS

Home | Current Version | Previous Version | Text Only | Print | Product List | Glossary On
Versions: 1 2 3 4 5 6 7 8 9 10 11 12 13 14 15 16 17
000
FTUS41 KGYX 052320
TAFPSM
TAF
KPSM 052320Z 0600/0624 31010KT P6SM OVC120
     FM060900 32005KT P6SM SKC
     FM061600 23005KT P6SM SKC=

USA.gov is the U.S. government's official web portal to all federal, state and local government web resources and services.